Time;durP1;ratioP1;P1;durP2;ratioP2;P2;SDS_P1;SDS_P2;PMS_P1;PMS_P2;Temp;Humidity;BMP_temperature;BMP_pressure;BME280_temperature;BME280_humidity;BME280_pressure;Samples;Min_cycle;Max_cycle;Signal;HPM_P1;HPM_P2
2023/01/13 00:01:25;;;;;;;11.85;8.95;;;;;;;19.29;44.24;101553.38;5053913;28;20045;-48
2023/01/13 00:03:52;;;;;;;11.73;9.73;;;;;;;19.29;44.26;101558.75;5053483;28;20064;-47
2023/01/13 00:06:24;;;;;;;12.30;9.48;;;;;;;19.29;44.25;101558.75;5053476;28;20049;-48
2023/01/13 00:08:52;;;;;;;14.50;8.68;;;;;;;19.26;44.28;101543.72;5053970;28;20049;-52
2023/01/13 00:11:21;;;;;;;13.77;9.45;;;;;;;19.26;44.20;101532.97;5053649;28;20048;-51
2023/01/13 00:13:48;;;;;;;13.27;9.00;;;;;;;19.25;44.28;101517.84;5053500;28;20467;-54
2023/01/13 00:16:17;;;;;;;12.50;9.02;;;;;;;19.24;44.21;101519.69;5052891;28;20044;-51
2023/01/13 00:18:45;;;;;;;12.70;8.93;;;;;;;19.24;44.23;101508.94;5053221;28;20045;-52
2023/01/13 00:21:13;;;;;;;11.23;8.57;;;;;;;19.24;44.15;101506.25;5053427;28;20051;-47
2023/01/13 00:23:42;;;;;;;13.65;8.82;;;;;;;19.24;44.25;101500.00;5053059;28;20388;-47
2023/01/13 00:26:15;;;;;;;11.57;9.10;;;;;;;19.23;44.09;101491.09;5053261;28;20052;-48
2023/01/13 00:28:42;;;;;;;10.85;8.82;;;;;;;19.23;44.08;101485.72;5053945;28;20364;-53
2023/01/13 00:31:11;;;;;;;10.82;8.43;;;;;;;19.22;44.22;101488.53;5052994;28;20053;-54
2023/01/13 00:33:39;;;;;;;10.98;8.48;;;;;;;19.22;44.52;101480.47;5053417;28;20390;-52
2023/01/13 00:36:07;;;;;;;13.93;8.30;;;;;;;19.21;44.38;101481.47;5053283;28;20064;-52
2023/01/13 00:38:36;;;;;;;11.35;8.93;;;;;;;19.20;44.20;101483.28;5052360;28;20049;-48
2023/01/13 00:41:06;;;;;;;10.45;8.43;;;;;;;19.21;44.08;101481.47;5053373;28;20040;-49
2023/01/13 00:43:35;;;;;;;10.95;8.55;;;;;;;19.21;44.40;101481.47;5053152;28;20053;-47
2023/01/13 00:46:04;;;;;;;10.95;8.50;;;;;;;19.19;44.23;101481.56;5057346;28;20049;-49
2023/01/13 00:48:33;;;;;;;10.27;8.52;;;;;;;19.19;44.14;101483.41;5058417;28;20057;-50
2023/01/13 00:51:05;;;;;;;10.60;8.30;;;;;;;19.19;44.34;101486.94;5057285;28;20045;-52
2023/01/13 00:53:38;;;;;;;10.70;8.47;;;;;;;19.19;44.33;101484.25;5056886;28;20562;-51
2023/01/13 00:56:16;;;;;;;14.32;8.55;;;;;;;19.19;44.42;101494.13;5056993;28;20586;-51
2023/01/13 00:58:51;;;;;;;13.20;8.57;;;;;;;19.18;44.48;101498.66;5057155;28;20053;-52
2023/01/13 01:01:21;;;;;;;9.60;7.47;;;;;;;19.17;44.41;101496.09;5056879;28;20364;-54
2023/01/13 01:03:53;;;;;;;9.90;8.13;;;;;;;19.18;44.37;101497.78;5056834;28;20119;-53
2023/01/13 01:06:23;;;;;;;10.30;7.90;;;;;;;19.17;44.42;101502.31;5056848;28;20049;-55
2023/01/13 01:08:52;;;;;;;10.18;7.95;;;;;;;19.17;44.42;101501.47;5057090;28;20058;-51
2023/01/13 01:11:23;;;;;;;11.45;7.90;;;;;;;19.17;44.45;101513.03;5056792;28;20040;-52
2023/01/13 01:13:51;;;;;;;13.60;7.90;;;;;;;19.16;44.39;101516.72;5056631;28;20045;-52
2023/01/13 01:16:20;;;;;;;11.52;8.57;;;;;;;19.17;44.55;101512.19;5056593;28;20045;-53
2023/01/13 01:18:49;;;;;;;8.90;7.35;;;;;;;19.16;44.49;101508.66;5056801;28;20049;-48
2023/01/13 01:21:17;;;;;;;8.88;7.68;;;;;;;19.17;44.39;101506.81;5056581;28;20049;-49
2023/01/13 01:23:45;;;;;;;9.45;8.43;;;;;;;19.17;44.28;101510.34;5056420;28;20383;-49
2023/01/13 01:26:14;;;;;;;9.70;8.07;;;;;;;19.17;44.50;101507.69;5057173;28;20056;-50
2023/01/13 01:28:42;;;;;;;11.60;7.88;;;;;;;19.16;44.41;101500.59;5055411;28;20049;-51
2023/01/13 01:31:16;;;;;;;10.43;8.00;;;;;;;19.17;44.42;101490.72;5056358;28;20056;-50
2023/01/13 01:33:47;;;;;;;11.60;8.07;;;;;;;19.16;44.62;101489.88;5056321;28;20044;-51
2023/01/13 01:36:18;;;;;;;9.18;7.95;;;;;;;19.17;44.62;101483.53;5055842;28;20094;-52
2023/01/13 01:38:46;;;;;;;9.45;7.80;;;;;;;19.17;44.69;101496.94;5056226;28;20037;-49
2023/01/13 01:41:16;;;;;;;8.73;6.60;;;;;;;19.17;44.67;101486.19;5055755;28;20045;-50
2023/01/13 01:44:07;;;;;;;11.80;8.23;;;;;;;19.17;44.63;101475.47;5056118;28;20045;-48
2023/01/13 01:46:43;;;;;;;11.38;8.10;;;;;;;19.17;44.70;101485.34;5056288;28;20053;-47
2023/01/13 01:49:22;;;;;;;10.18;7.80;;;;;;;19.16;44.58;101487.19;5056258;28;20045;-52
2023/01/13 01:51:56;;;;;;;9.88;7.85;;;;;;;19.16;44.73;101484.50;5055757;28;20049;-51
2023/01/13 01:54:37;;;;;;;9.70;7.82;;;;;;;19.16;44.63;101483.63;5055935;28;20054;-53
2023/01/13 01:57:10;;;;;;;11.07;7.28;;;;;;;19.16;44.72;101480.94;5054815;28;20045;-53
2023/01/13 01:59:38;;;;;;;11.75;7.70;;;;;;;19.15;44.72;101473.84;5056117;28;20071;-48
2023/01/13 02:02:06;;;;;;;9.50;7.68;;;;;;;19.14;44.85;101475.69;5054706;28;20045;-49
2023/01/13 02:04:39;;;;;;;11.75;8.18;;;;;;;19.14;44.76;101473.00;5055696;28;20116;-50
2023/01/13 02:07:07;;;;;;;9.30;7.63;;;;;;;19.13;44.74;101465.94;5055350;28;20076;-49
2023/01/13 02:09:35;;;;;;;8.80;6.80;;;;;;;19.13;44.68;101454.34;5055290;28;20045;-53
2023/01/13 02:14:49;;;;;;;11.40;7.88;;;;;;;19.13;44.79;101455.19;5055305;28;20049;-51
2023/01/13 02:17:31;;;;;;;11.65;8.38;;;;;;;19.14;44.93;101445.31;5055187;28;20040;-55
2023/01/13 02:20:32;;;;;;;9.25;6.80;;;;;;;19.14;44.92;101450.69;5056381;28;20053;-52
2023/01/13 02:26:14;;;;;;;10.02;6.95;;;;;;;19.14;44.97;101439.94;5053601;28;20057;-50
2023/01/13 02:32:19;;;;;;;9.35;6.90;;;;;;;19.13;44.77;101430.19;5054967;28;20056;-53
2023/01/13 02:34:54;;;;;;;;;;;;;;;19.13;44.84;101430.19;5055504;28;20049;-52
2023/01/13 02:37:27;;;;;;;9.38;7.70;;;;;;;19.13;44.85;101428.34;5055449;28;19921;-52
2023/01/13 02:40:00;;;;;;;10.45;7.70;;;;;;;19.13;44.88;101419.47;5055323;28;20049;-47
2023/01/13 02:45:27;;;;;;;8.43;6.80;;;;;;;19.14;44.93;101413.97;5055169;28;20044;-47
2023/01/13 02:47:57;;;;;;;9.07;6.70;;;;;;;19.14;44.89;101408.59;5070380;28;20053;-51
2023/01/13 02:50:31;;;;;;;9.73;7.15;;;;;;;19.13;44.94;101389.94;5054857;28;20040;-53
2023/01/13 02:53:04;;;;;;;9.02;6.78;;;;;;;19.13;44.90;101385.41;5054676;28;20056;-50
2023/01/13 02:55:45;;;;;;;10.02;7.40;;;;;;;19.13;45.06;101393.47;5054695;28;20049;-50
2023/01/13 02:58:18;;;;;;;8.38;6.80;;;;;;;19.13;45.06;101392.63;5054691;28;20056;-47
2023/01/13 03:00:47;;;;;;;10.10;7.22;;;;;;;19.12;45.02;101381.03;5054325;28;20060;-48
2023/01/13 03:03:15;;;;;;;10.13;7.25;;;;;;;19.13;45.04;101369.31;5054508;28;20041;-51
2023/01/13 03:05:45;;;;;;;10.23;7.53;;;;;;;19.12;44.96;101381.03;5054555;28;20521;-48
2023/01/13 03:08:20;;;;;;;7.95;7.00;;;;;;;19.13;45.12;101371.16;5054666;28;20397;-52
2023/01/13 03:10:53;;;;;;;8.50;6.50;;;;;;;19.11;45.14;101376.59;5054591;28;20045;-52
2023/01/13 03:13:26;;;;;;;8.57;7.03;;;;;;;19.12;45.04;101369.41;5054680;28;20430;-50
2023/01/13 03:16:07;;;;;;;10.23;7.10;;;;;;;19.11;45.05;101371.25;5053814;28;20479;-50
2023/01/13 03:18:44;;;;;;;8.20;6.85;;;;;;;19.11;45.07;101367.72;5054426;28;20044;-52
2023/01/13 03:21:33;;;;;;;8.98;6.53;;;;;;;19.11;45.06;101370.41;5054270;28;20053;-50
2023/01/13 03:24:01;;;;;;;8.20;6.32;;;;;;;19.11;45.15;101360.50;5054250;28;20045;-50
2023/01/13 03:26:54;;;;;;;9.50;6.80;;;;;;;19.11;45.14;101360.50;5054318;28;20048;-51
2023/01/13 03:29:35;;;;;;;9.07;6.78;;;;;;;19.11;45.13;101355.13;5054364;28;20052;-53
2023/01/13 03:32:14;;;;;;;8.57;7.07;;;;;;;19.10;45.11;101350.75;5054708;28;20501;-50
2023/01/13 03:34:49;;;;;;;7.65;6.75;;;;;;;19.11;45.17;101348.91;5054111;28;20068;-54
2023/01/13 03:37:21;;;;;;;8.65;6.20;;;;;;;19.11;45.18;101349.78;5053969;28;20068;-53
2023/01/13 03:39:56;;;;;;;7.72;6.38;;;;;;;19.10;45.11;101344.53;5054138;28;20052;-53
2023/01/13 03:42:27;;;;;;;8.88;6.70;;;;;;;19.10;45.30;101347.22;5053806;28;20418;-52
2023/01/13 03:45:08;;;;;;;8.05;6.68;;;;;;;19.09;45.35;101353.56;5053754;28;20487;-51
2023/01/13 03:47:54;;;;;;;9.95;6.65;;;;;;;19.09;45.22;101358.94;5053765;28;20049;-49
2023/01/13 03:50:27;;;;;;;9.35;6.55;;;;;;;19.09;45.08;101359.78;5054268;28;20403;-51
2023/01/13 03:53:00;;;;;;;8.52;6.63;;;;;;;19.09;45.11;101364.31;5053481;28;20056;-55
2023/01/13 03:55:35;;;;;;;7.68;6.20;;;;;;;19.09;45.13;101361.63;5053351;28;20055;-53
2023/01/13 03:58:13;;;;;;;6.65;5.95;;;;;;;19.09;45.13;101370.53;5053543;28;20045;-54
2023/01/13 04:00:53;;;;;;;9.40;6.60;;;;;;;19.09;45.21;101381.25;5053578;28;20052;-53
2023/01/13 04:03:41;;;;;;;6.15;5.43;;;;;;;19.08;45.13;101374.19;5053258;28;20045;-53
2023/01/13 04:06:15;;;;;;;9.23;6.72;;;;;;;19.08;45.16;101366.13;5053625;28;20045;-51
2023/01/13 04:08:51;;;;;;;7.32;5.68;;;;;;;19.08;45.13;101367.94;5053862;28;20486;-54
2023/01/13 04:11:29;;;;;;;7.35;6.20;;;;;;;19.08;45.01;101368.81;5053587;28;20044;-54
2023/01/13 04:13:58;;;;;;;12.15;6.10;;;;;;;19.08;45.04;101362.56;5053472;28;20049;-55
2023/01/13 04:16:26;;;;;;;9.20;6.40;;;;;;;19.08;45.11;101368.81;5053379;28;20056;-52
2023/01/13 04:18:53;;;;;;;8.68;6.50;;;;;;;19.07;45.10;101375.13;5054328;28;20040;-48
2023/01/13 04:21:21;;;;;;;7.43;5.95;;;;;;;19.08;45.11;101374.19;5056186;28;20053;-51
2023/01/13 04:23:50;;;;;;;8.15;5.82;;;;;;;19.08;45.08;101368.81;5057401;28;20422;-48
2023/01/13 04:26:18;;;;;;;9.70;6.15;;;;;;;19.06;45.03;101362.69;5057556;28;20487;-49
2023/01/13 04:28:45;;;;;;;7.65;6.38;;;;;;;19.08;45.05;101368.81;5057641;28;20045;-47
2023/01/13 04:31:13;;;;;;;8.77;6.28;;;;;;;19.07;45.18;101366.22;5057471;28;20048;-46
2023/01/13 04:33:40;;;;;;;7.88;5.90;;;;;;;19.07;45.28;101366.22;5056088;28;20049;-47
2023/01/13 04:36:08;;;;;;;7.47;6.13;;;;;;;19.07;45.30;101366.22;5056974;28;20356;-48
2023/01/13 04:38:35;;;;;;;8.45;6.38;;;;;;;19.07;45.20;101372.44;5057588;28;20045;-52
2023/01/13 04:41:03;;;;;;;7.90;6.38;;;;;;;19.05;45.24;101379.78;5057128;28;20059;-53
2023/01/13 04:43:30;;;;;;;12.20;6.22;;;;;;;19.07;45.34;101387.69;5057178;28;20383;-53
2023/01/13 04:45:57;;;;;;;7.57;6.13;;;;;;;19.06;45.38;101394.91;5057222;28;20390;-52
2023/01/13 04:48:24;;;;;;;8.00;6.38;;;;;;;19.07;45.38;101395.75;5057335;28;20066;-52
2023/01/13 04:50:52;;;;;;;7.80;5.78;;;;;;;19.06;45.44;101394.91;5057052;28;20052;-51
2023/01/13 04:53:19;;;;;;;6.78;5.80;;;;;;;19.05;45.23;101393.19;5056844;28;20040;-51
2023/01/13 04:55:48;;;;;;;6.85;6.07;;;;;;;19.07;45.29;101398.44;5056410;28;20044;-54
2023/01/13 04:58:15;;;;;;;9.02;5.50;;;;;;;19.05;45.44;101401.25;5056919;28;20055;-47
2023/01/13 05:00:43;;;;;;;7.68;5.78;;;;;;;19.04;45.35;101404.91;5056687;28;20056;-50
2023/01/13 05:03:10;;;;;;;10.65;6.25;;;;;;;19.05;45.37;101419.19;5056941;28;20045;-48
2023/01/13 05:05:37;;;;;;;7.95;5.85;;;;;;;19.05;45.51;101421.88;5056690;28;20045;-47
2023/01/13 05:08:05;;;;;;;6.55;5.50;;;;;;;19.05;45.43;101420.03;5057042;28;20052;-53
2023/01/13 05:10:32;;;;;;;7.47;5.93;;;;;;;19.05;45.47;101413.81;5056654;28;20056;-52
2023/01/13 05:18:33;;;;;;;7.45;5.70;;;;;;;19.02;45.38;101437.22;5056641;28;20386;-48
2023/01/13 05:21:00;;;;;;;6.97;5.78;;;;;;;19.03;45.47;101441.59;5056499;28;20056;-48
2023/01/13 05:26:13;;;;;;;7.70;6.20;;;;;;;19.03;45.41;101428.19;5056552;28;20049;-48
2023/01/13 05:28:41;;;;;;;6.35;5.35;;;;;;;19.03;45.50;101420.13;5056536;28;20045;-51
2023/01/13 05:31:08;;;;;;;6.45;5.13;;;;;;;19.02;45.34;101426.47;5054938;28;20048;-51
2023/01/13 05:33:35;;;;;;;6.78;5.47;;;;;;;19.02;45.22;101420.25;5056203;28;20048;-52
2023/01/13 05:36:04;;;;;;;7.18;5.72;;;;;;;19.02;45.28;101422.94;5056167;28;20051;-51
2023/01/13 05:38:31;;;;;;;9.32;5.93;;;;;;;19.01;45.50;101424.78;5056424;28;20040;-49
2023/01/13 05:43:45;;;;;;;7.78;6.28;;;;;;;19.01;45.41;101432.81;5055802;28;20407;-47
2023/01/13 05:46:13;;;;;;;7.82;5.90;;;;;;;19.03;45.39;101432.69;5055716;28;20052;-49
2023/01/13 05:48:41;;;;;;;8.57;5.55;;;;;;;19.02;45.33;101441.72;5056152;28;20044;-54
2023/01/13 05:51:10;;;;;;;9.15;6.68;;;;;;;19.01;45.45;101442.69;5055897;28;20048;-54
2023/01/13 05:53:39;;;;;;;9.10;5.38;;;;;;;19.02;45.59;101444.41;5055741;28;20044;-51
2023/01/13 05:56:08;;;;;;;8.32;6.10;;;;;;;19.01;45.41;101437.34;5055774;28;20049;-51
2023/01/13 05:58:35;;;;;;;7.30;5.10;;;;;;;19.01;45.39;101440.03;5055804;28;20053;-54
2023/01/13 06:01:05;;;;;;;9.30;5.90;;;;;;;19.01;45.38;101442.69;5055514;28;20045;-52
2023/01/13 06:03:33;;;;;;;7.78;5.70;;;;;;;19.01;45.40;101443.56;5055431;28;20045;-53
2023/01/13 06:06:02;;;;;;;8.90;5.53;;;;;;;19.01;45.41;101448.06;5055581;28;20399;-53
2023/01/13 06:08:31;;;;;;;7.15;5.30;;;;;;;19.01;45.27;101445.38;5055819;28;20041;-48
2023/01/13 06:10:58;;;;;;;6.10;5.07;;;;;;;19.01;45.44;101442.69;5055419;28;20048;-48
2023/01/13 06:13:25;;;;;;;7.60;5.57;;;;;;;19.00;45.40;101433.78;5070694;28;20041;-48
2023/01/13 06:15:57;;;;;;;6.30;5.38;;;;;;;19.00;45.33;101433.78;5055361;28;20060;-49
2023/01/13 06:18:26;;;;;;;7.93;5.40;;;;;;;19.00;45.32;101432.94;5055960;28;20047;-48
2023/01/13 06:20:54;;;;;;;9.90;5.85;;;;;;;19.00;45.21;101435.63;5055354;28;20048;-46
2023/01/13 06:23:22;;;;;;;6.85;5.07;;;;;;;19.00;45.24;101446.38;5055245;28;20483;-47
2023/01/13 06:26:03;;;;;;;7.20;5.63;;;;;;;18.99;45.28;101445.47;5055202;28;20037;-48
2023/01/13 06:28:32;;;;;;;6.90;5.30;;;;;;;18.99;45.29;101461.56;5055482;28;20387;-49
2023/01/13 06:31:04;;;;;;;7.80;5.03;;;;;;;18.99;45.37;101445.47;5055686;28;20045;-47
2023/01/13 06:33:42;;;;;;;8.40;5.85;;;;;;;19.00;45.08;101451.72;5054985;28;20052;-47
2023/01/13 06:36:17;;;;;;;8.50;5.70;;;;;;;19.00;45.18;101457.09;5055022;28;20041;-49
2023/01/13 06:38:47;;;;;;;7.13;5.80;;;;;;;19.00;45.15;101465.16;5055250;28;20044;-47
2023/01/13 06:41:16;;;;;;;6.57;5.63;;;;;;;18.99;45.25;101450.84;5054508;28;20471;-47
2023/01/13 06:43:43;;;;;;;7.75;4.90;;;;;;;19.00;45.46;101451.72;5054608;28;20052;-49
2023/01/13 06:46:10;;;;;;;7.60;5.45;;;;;;;18.99;45.45;101453.53;5055669;28;20052;-47
2023/01/13 06:48:37;;;;;;;9.48;5.57;;;;;;;19.00;45.37;101451.72;5054919;28;20049;-51
2023/01/13 06:51:05;;;;;;;7.43;6.00;;;;;;;18.99;45.28;101475.00;5054957;28;20048;-50
2023/01/13 06:53:32;;;;;;;7.85;6.05;;;;;;;19.00;45.37;101465.16;5054527;28;20052;-51
2023/01/13 06:56:00;;;;;;;7.15;5.25;;;;;;;18.99;45.25;101461.56;5054365;28;20068;-51
2023/01/13 06:58:28;;;;;;;7.20;5.97;;;;;;;18.98;45.23;101457.19;5055104;28;20052;-48
2023/01/13 07:00:58;;;;;;;7.85;6.15;;;;;;;18.99;45.31;101452.69;5054784;28;20060;-47
2023/01/13 07:03:26;;;;;;;8.73;5.80;;;;;;;18.99;45.22;101452.69;5054464;28;20045;-49
2023/01/13 07:05:54;;;;;;;6.78;6.07;;;;;;;18.99;45.28;101450.00;5053275;28;20036;-48
2023/01/13 07:08:22;;;;;;;10.73;5.80;;;;;;;18.99;45.35;101450.00;5055219;28;20056;-51
2023/01/13 07:10:50;;;;;;;9.05;5.95;;;;;;;18.98;45.19;101443.78;5054238;28;20048;-54
2023/01/13 07:16:05;;;;;;;9.50;6.10;;;;;;;18.99;45.28;101447.31;5054111;28;20360;-54
2023/01/13 07:18:34;;;;;;;6.57;5.28;;;;;;;18.98;45.23;101453.66;5054441;28;20426;-53
2023/01/13 07:21:07;;;;;;;9.23;5.45;;;;;;;18.98;45.29;101453.66;5054314;28;20044;-50
2023/01/13 07:23:38;;;;;;;6.20;5.18;;;;;;;18.97;45.33;101452.81;5054150;28;20056;-54
2023/01/13 07:26:07;;;;;;;7.63;5.55;;;;;;;18.97;45.23;101458.16;5054019;28;20056;-52
2023/01/13 07:28:35;;;;;;;7.65;6.10;;;;;;;18.98;45.41;101453.66;5054061;28;20041;-53
2023/01/13 07:31:03;;;;;;;8.13;5.80;;;;;;;18.98;45.39;101465.25;5053661;28;20067;-55
2023/01/13 07:33:33;;;;;;;7.72;5.47;;;;;;;18.97;45.48;101457.31;5053580;28;20053;-55
2023/01/13 07:36:03;;;;;;;9.15;5.90;;;;;;;18.97;45.24;101449.25;5053497;28;20107;-51
2023/01/13 07:38:32;;;;;;;8.65;5.70;;;;;;;18.96;45.28;101435.00;5053693;28;20053;-51
2023/01/13 07:43:30;;;;;;;10.07;5.93;;;;;;;18.97;45.37;101443.91;5069139;28;20056;-50
2023/01/13 07:43:49;;;;;;;10.20;5.03;;;;;;;18.97;45.32;101451.94;5053426;28;20053;-49
2023/01/13 07:46:17;;;;;;;11.52;6.03;;;;;;;18.97;45.30;101435.84;5053815;28;20037;-48
2023/01/13 07:48:46;;;;;;;6.68;5.28;;;;;;;18.97;45.22;101435.84;5052518;28;20053;-47
2023/01/13 07:51:13;;;;;;;7.80;5.20;;;;;;;18.97;45.33;101425.13;5053631;28;20399;-48
2023/01/13 07:53:40;;;;;;;8.45;5.35;;;;;;;18.97;45.41;101441.22;5052819;28;20045;-48
2023/01/13 07:56:08;;;;;;;8.15;5.40;;;;;;;18.97;45.20;101454.63;5053618;28;20053;-48
2023/01/13 07:58:36;;;;;;;8.38;5.15;;;;;;;18.97;45.28;101457.31;5053811;28;20056;-47
2023/01/13 08:01:11;;;;;;;10.80;5.47;;;;;;;18.96;45.28;101452.94;5053258;28;20056;-49
2023/01/13 08:03:39;;;;;;;6.78;5.47;;;;;;;18.96;45.19;101460.97;5053539;28;20406;-49
2023/01/13 08:06:08;;;;;;;10.68;5.20;;;;;;;18.96;45.25;101461.84;5053450;28;20045;-50
2023/01/13 08:08:36;;;;;;;8.55;5.63;;;;;;;18.95;45.07;101465.47;5053111;28;20402;-52
2023/01/13 08:11:06;;;;;;;8.77;5.47;;;;;;;18.95;45.18;101451.19;5053089;28;20057;-51
2023/01/13 08:13:33;;;;;;;8.43;5.72;;;;;;;18.95;45.11;101452.03;5053254;28;20049;-51
2023/01/13 08:16:04;;;;;;;7.93;5.68;;;;;;;18.96;45.11;101455.63;5053315;28;20384;-53
2023/01/13 08:18:32;;;;;;;7.20;5.65;;;;;;;18.95;44.97;101449.38;5053491;28;20045;-50
2023/01/13 08:21:02;;;;;;;8.65;5.43;;;;;;;18.96;45.14;101442.19;5053245;28;20048;-49
2023/01/13 08:23:29;;;;;;;6.88;5.30;;;;;;;18.95;45.24;101452.03;5053347;28;20384;-48
2023/01/13 08:26:01;;;;;;;8.50;5.38;;;;;;;18.95;45.09;101445.81;5053239;28;20045;-47
2023/01/13 08:28:30;;;;;;;8.17;5.73;;;;;;;18.95;45.28;101441.31;5053721;28;20053;-50
2023/01/13 08:31:06;;;;;;;8.30;5.78;;;;;;;18.95;45.30;101438.63;5053290;28;20281;-51
2023/01/13 08:33:34;;;;;;;8.65;6.63;;;;;;;18.97;44.59;101454.63;5052208;28;20048;-52
2023/01/13 08:36:06;;;;;;;10.50;8.25;;;;;;;18.94;43.86;101449.50;5033047;28;20046;-53
2023/01/13 08:38:34;;;;;;;10.40;8.45;;;;;;;18.92;43.29;101446.94;5032932;28;20057;-48
2023/01/13 08:41:53;;;;;;;11.15;9.52;;;;;;;18.91;42.88;101460.44;5033147;28;20494;-49
2023/01/13 08:44:04;;;;;;;11.23;10.02;;;;;;;18.88;42.25;101453.50;5032557;28;20044;-48
2023/01/13 08:46:31;;;;;;;12.23;9.82;;;;;;;18.87;42.07;101450.91;5032793;28;20045;-49
2023/01/13 08:48:58;;;;;;;13.55;10.95;;;;;;;18.85;41.73;101453.72;5050470;28;20049;-48
2023/01/13 08:51:26;;;;;;;12.07;10.75;;;;;;;18.83;41.52;101457.47;5052555;28;20494;-48
2023/01/13 08:53:53;;;;;;;15.15;12.82;;;;;;;18.78;41.08;101463.19;5051229;28;20057;-50
2023/01/13 08:56:22;;;;;;;12.35;9.65;;;;;;;18.77;42.47;101464.16;5052592;28;20052;-48
2023/01/13 08:58:49;;;;;;;13.15;9.45;;;;;;;18.75;42.68;101453.53;5053023;28;20041;-51
2023/01/13 09:01:20;;;;;;;9.70;7.97;;;;;;;18.77;43.70;101459.66;5052755;28;20045;-52
2023/01/13 09:03:48;;;;;;;7.55;6.60;;;;;;;18.78;43.92;101453.31;5052676;28;20514;-53
2023/01/13 09:06:15;;;;;;;12.20;6.72;;;;;;;18.82;43.93;101456.63;5054976;28;20487;-51
2023/01/13 09:08:43;;;;;;;9.07;7.07;;;;;;;18.83;44.14;101461.00;5056319;28;20052;-46
2023/01/13 09:14:04;;;;;;;11.75;7.30;;;;;;;18.85;44.02;101463.59;5056013;28;20056;-46
2023/01/13 09:16:31;;;;;;;8.23;6.30;;;;;;;18.86;43.91;101466.16;5056034;28;20052;-48
2023/01/13 09:18:58;;;;;;;10.23;6.95;;;;;;;18.87;44.16;101453.59;5056392;28;20053;-48
2023/01/13 09:21:26;;;;;;;7.63;5.70;;;;;;;18.88;44.01;101460.66;5055892;28;20471;-50
2023/01/13 09:23:53;;;;;;;9.70;6.55;;;;;;;18.90;44.07;101450.69;5055905;28;20052;-46
2023/01/13 09:26:20;;;;;;;8.48;6.18;;;;;;;18.91;44.20;101444.34;5056052;28;20044;-46
2023/01/13 09:28:48;;;;;;;10.38;6.28;;;;;;;18.92;44.16;101452.28;5055953;28;20041;-50
2023/01/13 09:31:15;;;;;;;6.88;5.68;;;;;;;18.92;44.10;101465.72;5055688;28;20071;-51
2023/01/13 09:36:28;;;;;;;9.27;6.32;;;;;;;18.93;44.16;101451.31;5054332;28;20049;-51
2023/01/13 09:38:55;;;;;;;10.13;5.85;;;;;;;18.94;44.24;101452.16;5055572;28;20041;-47
2023/01/13 09:44:58;;;;;;;7.38;5.28;;;;;;;18.95;44.16;101438.63;5055228;28;20053;-46
2023/01/13 09:47:32;;;;;;;9.82;5.63;;;;;;;18.94;44.10;101428.88;5050895;28;20057;-49
2023/01/13 09:50:20;;;;;;;9.50;5.85;;;;;;;18.93;44.19;101419.13;5055406;28;20049;-46
2023/01/13 09:52:48;;;;;;;7.90;5.60;;;;;;;18.95;44.23;101427.03;5055437;28;20056;-46
2023/01/13 09:55:21;;;;;;;9.77;5.97;;;;;;;18.95;44.37;101421.69;5054949;28;20084;-47
2023/01/13 09:57:48;;;;;;;10.70;6.35;;;;;;;18.95;44.24;101419.00;5055021;28;20458;-47
2023/01/13 10:00:36;;;;;;;7.47;5.75;;;;;;;18.95;44.33;101427.03;5055329;28;20041;-47
2023/01/13 10:03:22;;;;;;;7.88;6.03;;;;;;;18.94;44.47;101423.50;5054238;28;20053;-47
2023/01/13 10:05:55;;;;;;;7.93;5.78;;;;;;;18.96;44.39;101434.16;5055038;28;20067;-47
2023/01/13 10:08:27;;;;;;;9.23;6.18;;;;;;;18.95;44.44;101435.94;5055590;28;20045;-51
2023/01/13 10:10:58;;;;;;;7.22;5.70;;;;;;;18.96;44.30;101434.16;5055296;28;20056;-50
2023/01/13 10:13:29;;;;;;;8.15;5.72;;;;;;;18.95;44.23;101427.03;5053810;28;20513;-51
2023/01/13 10:16:18;;;;;;;6.60;4.57;;;;;;;18.94;44.49;101426.19;5054699;28;20406;-50
2023/01/13 10:18:57;;;;;;;6.50;5.32;;;;;;;18.95;44.46;101427.91;5054598;28;20049;-49
2023/01/13 10:21:30;;;;;;;8.00;6.05;;;;;;;18.96;44.37;101423.41;5054808;28;20184;-47
2023/01/13 10:24:03;;;;;;;;;;;;;;;18.95;44.35;101417.16;5055399;28;20052;-49
2023/01/13 10:26:54;;;;;;;7.18;5.47;;;;;;;18.96;44.49;101415.38;5054648;28;19928;-49
2023/01/13 10:29:27;;;;;;;9.13;6.18;;;;;;;18.95;44.49;101419.84;5054802;28;20490;-50
2023/01/13 10:31:56;;;;;;;7.15;5.78;;;;;;;18.96;44.36;101418.06;5054797;28;20041;-51
2023/01/13 10:34:25;;;;;;;8.20;6.05;;;;;;;18.95;44.44;101419.84;5054667;28;20037;-51
2023/01/13 10:37:01;;;;;;;6.97;5.80;;;;;;;18.96;44.45;101412.69;5054322;28;20045;-52
2023/01/13 10:39:39;;;;;;;6.55;5.40;;;;;;;18.94;44.45;101410.09;5054428;28;20060;-47
2023/01/13 10:42:16;;;;;;;11.07;6.35;;;;;;;18.95;44.50;101409.13;5054572;28;20044;-48
2023/01/13 10:45:18;;;;;;;7.82;5.32;;;;;;;18.95;44.39;101398.38;5054545;28;20049;-47
2023/01/13 10:48:05;;;;;;;8.60;6.00;;;;;;;18.95;44.44;101401.06;5054475;28;20056;-50
2023/01/13 10:50:35;;;;;;;8.02;5.35;;;;;;;18.95;44.37;101389.47;5054435;28;20049;-47
2023/01/13 10:53:17;;;;;;;6.78;5.32;;;;;;;18.95;44.44;101390.34;5054331;28;20052;-47
2023/01/13 10:55:58;;;;;;;8.20;6.25;;;;;;;18.95;44.53;101389.47;5054019;28;20052;-46
2023/01/13 10:58:27;;;;;;;6.78;5.63;;;;;;;18.95;44.60;101384.13;5054390;28;20048;-48
2023/01/13 11:00:59;;;;;;;7.40;6.07;;;;;;;18.94;44.50;101387.78;5054100;28;20045;-47
2023/01/13 11:03:40;;;;;;;5.80;5.15;;;;;;;18.94;44.59;101394.00;5054343;28;20045;-47
2023/01/13 11:06:17;;;;;;;7.90;6.00;;;;;;;18.96;44.46;101388.53;5053963;28;20039;-47
2023/01/13 11:08:48;;;;;;;9.70;6.18;;;;;;;18.95;44.55;101379.59;5054246;28;20399;-51
2023/01/13 11:11:46;;;;;;;8.18;6.20;;;;;;;18.97;44.70;101376.81;5054024;28;20049;-51
2023/01/13 11:14:31;;;;;;;8.40;5.80;;;;;;;18.96;44.86;101367.91;5054003;28;20044;-49
2023/01/13 11:17:04;;;;;;;7.15;5.72;;;;;;;18.96;44.75;101353.66;5053797;28;20459;-53
2023/01/13 11:19:34;;;;;;;7.57;5.97;;;;;;;18.97;44.70;101347.31;5052791;28;20064;-53
2023/01/13 11:22:36;;;;;;;6.93;5.68;;;;;;;18.96;44.60;101343.78;5053745;28;20049;-53
2023/01/13 11:25:09;;;;;;;8.13;6.15;;;;;;;18.96;44.69;101329.50;5052926;28;20056;-54
2023/01/13 11:27:56;;;;;;;7.57;6.03;;;;;;;18.96;44.55;101326.81;5053805;28;20540;-54
2023/01/13 11:30:48;;;;;;;7.57;6.35;;;;;;;18.95;44.48;101323.25;5053864;28;20441;-48
2023/01/13 11:34:02;;;;;;;7.47;5.88;;;;;;;18.95;44.54;101325.94;5053788;28;20056;-48
2023/01/13 11:36:52;;;;;;;8.35;6.53;;;;;;;18.96;44.61;101327.69;5052581;28;20060;-46
2023/01/13 11:39:47;;;;;;;9.23;6.78;;;;;;;18.95;44.65;101331.31;5053683;28;20056;-46
2023/01/13 11:42:30;;;;;;;6.93;6.07;;;;;;;18.95;44.53;101330.44;5053316;28;20049;-47
2023/01/13 11:45:16;;;;;;;9.25;6.47;;;;;;;18.94;44.80;101329.59;5053542;28;20045;-49
2023/01/13 11:47:51;;;;;;;20.05;13.27;;;;;;;18.92;42.73;101330.69;5053606;28;20048;-50
2023/01/13 11:50:33;;;;;;;11.32;9.95;;;;;;;18.87;43.59;101323.00;5053511;28;20522;-48
2023/01/13 11:53:21;;;;;;;10.20;8.30;;;;;;;18.87;44.34;101317.63;5053388;28;20053;-49
2023/01/13 11:55:57;;;;;;;8.27;7.40;;;;;;;18.88;44.29;101322.03;5053067;28;20045;-47
2023/01/13 11:58:57;;;;;;;8.30;6.95;;;;;;;18.88;44.31;101311.31;5053460;28;20041;-53
2023/01/13 12:01:53;;;;;;;8.80;6.97;;;;;;;18.89;44.35;101312.16;5053274;28;20052;-51
2023/01/13 12:04:32;;;;;;;8.40;6.60;;;;;;;18.90;44.44;101312.03;5052036;28;20049;-50
2023/01/13 12:07:15;;;;;;;8.85;6.80;;;;;;;18.90;44.21;101325.44;5053408;28;20049;-51
2023/01/13 12:10:02;;;;;;;7.50;6.22;;;;;;;18.91;44.26;101327.16;5053562;28;20048;-51
2023/01/13 12:12:35;;;;;;;8.20;6.47;;;;;;;18.90;44.35;101311.19;5053100;28;20368;-52
2023/01/13 12:15:21;;;;;;;9.15;6.20;;;;;;;18.90;44.52;101305.81;5053061;28;20467;-51
2023/01/13 12:18:13;;;;;;;8.95;6.78;;;;;;;18.90;44.31;101309.34;5053007;28;20049;-50
2023/01/13 12:21:03;;;;;;;9.95;6.50;;;;;;;18.90;44.52;101312.03;5052809;28;20048;-52
2023/01/13 12:24:12;;;;;;;9.23;6.97;;;;;;;18.89;44.49;101304.13;5052784;28;20048;-51
2023/01/13 12:26:45;;;;;;;8.43;6.53;;;;;;;18.89;44.52;101315.69;5053127;28;20049;-55